createdAt,value
2019-01-15T00:00:57.077Z,8.00
2019-01-15T00:03:25.733Z,8.00
2019-01-15T00:05:54.423Z,8.00
2019-01-15T00:08:22.921Z,8.00
2019-01-15T00:10:51.590Z,8.00
2019-01-15T00:13:19.866Z,8.00
2019-01-15T00:15:48.563Z,8.00
2019-01-15T00:18:17.227Z,8.00
2019-01-15T00:20:45.614Z,8.00
2019-01-15T00:23:14.603Z,8.00
2019-01-15T00:25:43.293Z,8.00
2019-01-15T00:28:11.982Z,8.00
2019-01-15T00:30:40.394Z,8.00
2019-01-15T00:33:08.729Z,8.00
2019-01-15T00:35:37.416Z,8.00
2019-01-15T00:38:06.845Z,8.00
2019-01-15T00:40:35.610Z,8.00
2019-01-15T00:43:07.798Z,8.00
2019-01-15T00:45:36.453Z,8.00
2019-01-15T00:48:11.101Z,8.00
2019-01-15T00:50:39.770Z,8.00
2019-01-15T00:53:08.459Z,8.00
2019-01-15T00:55:37.173Z,8.00
2019-01-15T00:58:05.397Z,8.00
2019-01-15T01:00:33.877Z,8.00
2019-01-15T01:03:02.706Z,8.00
2019-01-15T01:05:31.259Z,7.90
2019-01-15T01:07:59.953Z,7.90
2019-01-15T01:10:28.663Z,7.90
2019-01-15T01:12:57.309Z,7.90
2019-01-15T01:15:26.111Z,7.90
2019-01-15T01:17:54.718Z,7.90
2019-01-15T01:20:22.974Z,7.90
2019-01-15T01:22:51.944Z,7.90
2019-01-15T01:25:20.570Z,7.90
2019-01-15T01:27:49.034Z,7.90
2019-01-15T01:30:19.569Z,7.90
2019-01-15T01:32:48.270Z,7.90
2019-01-15T01:35:16.922Z,7.90
2019-01-15T01:37:45.617Z,7.90
2019-01-15T01:40:16.477Z,7.90
2019-01-15T01:42:45.338Z,7.80
2019-01-15T01:45:14.124Z,7.80
2019-01-15T01:47:42.406Z,7.80
2019-01-15T01:50:18.837Z,7.80
2019-01-15T01:52:47.158Z,7.80
2019-01-15T01:55:15.732Z,7.80
2019-01-15T01:57:44.338Z,7.80
2019-01-15T02:00:15.118Z,7.80
2019-01-15T02:02:43.730Z,7.80
2019-01-15T02:05:12.375Z,7.80
2019-01-15T02:07:40.513Z,7.80
2019-01-15T02:10:10.908Z,7.80
2019-01-15T02:12:39.208Z,7.80
2019-01-15T02:15:09.224Z,7.80
2019-01-15T02:17:37.691Z,7.80
2019-01-15T02:20:07.818Z,7.80
2019-01-15T02:22:36.498Z,7.80
2019-01-15T02:25:06.294Z,7.70
2019-01-15T02:27:35.681Z,7.70
2019-01-15T02:30:05.532Z,7.70
2019-01-15T02:32:33.887Z,7.70
2019-01-15T02:35:03.270Z,7.70
2019-01-15T02:37:31.912Z,7.70
2019-01-15T02:40:00.228Z,7.70
2019-01-15T02:42:28.440Z,7.70
2019-01-15T02:44:59.453Z,7.70
2019-01-15T02:47:27.853Z,7.70
2019-01-15T02:49:56.242Z,7.70
2019-01-15T02:52:25.575Z,7.70
2019-01-15T02:54:53.906Z,7.70
2019-01-15T02:57:22.584Z,7.70
2019-01-15T02:59:51.302Z,7.70
2019-01-15T03:02:19.962Z,7.70
2019-01-15T03:04:48.649Z,7.70
2019-01-15T03:07:17.738Z,7.70
2019-01-15T03:09:46.129Z,7.70
2019-01-15T03:12:14.497Z,7.70
2019-01-15T03:14:42.810Z,7.70
2019-01-15T03:17:11.468Z,7.60
2019-01-15T03:19:40.151Z,7.60
2019-01-15T03:22:08.957Z,7.60
2019-01-15T03:24:37.526Z,7.60
2019-01-15T03:27:06.193Z,7.70
2019-01-15T03:29:34.905Z,7.70
2019-01-15T03:32:03.574Z,7.70
2019-01-15T03:34:31.838Z,7.70
2019-01-15T03:37:00.575Z,7.60
2019-01-15T03:39:29.218Z,7.60
2019-01-15T03:41:57.905Z,7.60
2019-01-15T03:44:26.628Z,7.60
2019-01-15T03:46:55.286Z,7.60
2019-01-15T03:49:23.962Z,7.60
2019-01-15T03:51:52.678Z,7.60
2019-01-15T03:54:24.922Z,7.60
2019-01-15T03:56:53.657Z,7.60
2019-01-15T03:59:22.175Z,7.60
2019-01-15T04:01:50.871Z,7.60
2019-01-15T04:04:19.579Z,7.60
2019-01-15T04:06:48.239Z,7.60
2019-01-15T04:09:16.925Z,7.60
2019-01-15T04:11:45.629Z,7.50
2019-01-15T04:14:15.031Z,7.60
2019-01-15T04:16:43.593Z,7.60
2019-01-15T04:19:12.317Z,7.60
2019-01-15T04:21:40.975Z,7.60
2019-01-15T04:24:09.858Z,7.60
2019-01-15T04:26:40.146Z,7.60
2019-01-15T04:29:08.876Z,7.60
2019-01-15T04:31:37.558Z,7.60
2019-01-15T04:34:06.258Z,7.60
2019-01-15T04:36:34.927Z,7.60
2019-01-15T04:39:05.789Z,7.50
2019-01-15T04:41:34.349Z,7.50
2019-01-15T04:44:02.937Z,7.50
2019-01-15T04:46:32.553Z,7.50
2019-01-15T04:49:02.695Z,7.50
2019-01-15T04:51:31.557Z,7.50
2019-01-15T04:53:59.842Z,7.50
2019-01-15T04:56:29.537Z,7.50
2019-01-15T04:58:58.381Z,7.50
2019-01-15T05:01:27.202Z,7.50
2019-01-15T05:03:55.497Z,7.50
2019-01-15T05:06:24.065Z,7.50
2019-01-15T05:08:52.366Z,7.50
2019-01-15T05:11:21.038Z,7.50
2019-01-15T05:13:49.712Z,7.50
2019-01-15T05:16:18.426Z,7.50
2019-01-15T05:18:46.877Z,7.50
2019-01-15T05:21:15.149Z,7.50
2019-01-15T05:23:43.869Z,7.50
2019-01-15T05:26:12.921Z,7.50
2019-01-15T05:28:41.323Z,7.40
2019-01-15T05:31:10.123Z,7.50
2019-01-15T05:33:38.386Z,7.50
2019-01-15T05:36:06.852Z,7.50
2019-01-15T05:38:35.565Z,7.50
2019-01-15T05:41:04.234Z,7.50
2019-01-15T05:43:35.641Z,7.50
2019-01-15T05:46:03.567Z,7.50
2019-01-15T05:48:36.853Z,7.50
2019-01-15T05:51:21.222Z,7.40
2019-01-15T05:53:49.478Z,7.40
2019-01-15T05:56:18.050Z,7.40
2019-01-15T05:58:47.798Z,7.40
2019-01-15T06:01:16.040Z,7.40
2019-01-15T06:03:45.131Z,7.40
2019-01-15T06:06:13.433Z,7.40
2019-01-15T06:08:42.141Z,7.40
2019-01-15T06:11:10.578Z,7.40
2019-01-15T06:13:42.775Z,7.40
2019-01-15T06:16:10.611Z,7.40
2019-01-15T06:18:39.325Z,7.40
2019-01-15T06:21:07.607Z,7.40
2019-01-15T06:23:36.255Z,7.40
2019-01-15T06:26:04.962Z,7.40
2019-01-15T06:28:33.711Z,7.40
2019-01-15T06:31:02.306Z,7.40
2019-01-15T06:33:31.016Z,7.40
2019-01-15T06:35:59.677Z,7.40
2019-01-15T06:38:28.369Z,7.40
2019-01-15T06:40:56.877Z,7.40
2019-01-15T06:43:25.434Z,7.40
2019-01-15T06:45:53.789Z,7.40
2019-01-15T06:48:23.456Z,7.40
2019-01-15T06:50:52.211Z,7.40
2019-01-15T06:53:20.890Z,7.40
2019-01-15T06:55:49.845Z,7.40
2019-01-15T06:58:18.475Z,7.30
2019-01-15T07:00:47.145Z,7.30
2019-01-15T07:03:15.884Z,7.40
2019-01-15T07:05:44.539Z,7.40
2019-01-15T07:08:13.198Z,7.40
2019-01-15T07:10:41.962Z,7.30
2019-01-15T07:13:11.046Z,7.40
2019-01-15T07:15:39.606Z,7.30
2019-01-15T07:18:08.596Z,7.30
2019-01-15T07:20:37.262Z,7.20
2019-01-15T07:23:05.749Z,7.30
2019-01-15T07:25:34.456Z,7.30
2019-01-15T07:28:02.809Z,7.30
2019-01-15T07:30:37.616Z,7.30
2019-01-15T07:33:07.239Z,7.30
2019-01-15T07:35:35.921Z,7.30
2019-01-15T07:38:04.646Z,7.30
2019-01-15T07:40:33.300Z,7.30
2019-01-15T07:43:01.772Z,7.30
2019-01-15T07:45:30.878Z,7.30
2019-01-15T07:47:59.554Z,7.30
2019-01-15T07:50:28.341Z,7.30
2019-01-15T07:52:56.748Z,7.30
2019-01-15T07:55:25.518Z,7.30
2019-01-15T07:57:54.083Z,7.30
2019-01-15T08:00:23.013Z,7.30
2019-01-15T08:02:51.788Z,7.30
2019-01-15T08:05:21.736Z,7.30
2019-01-15T08:07:50.484Z,7.30
2019-01-15T08:10:19.371Z,7.30
2019-01-15T08:12:48.045Z,7.30
2019-01-15T08:15:20.958Z,7.30
2019-01-15T08:17:49.516Z,7.30
2019-01-15T08:20:20.436Z,7.30
2019-01-15T08:22:55.639Z,7.30
2019-01-15T08:25:24.380Z,7.30
2019-01-15T08:27:52.855Z,7.40
2019-01-15T08:30:35.607Z,7.40
2019-01-15T08:33:04.994Z,7.40
2019-01-15T08:35:33.464Z,7.40
2019-01-15T08:38:03.963Z,7.40
2019-01-15T08:40:33.419Z,7.40
2019-01-15T08:43:02.180Z,7.40
2019-01-15T08:45:30.879Z,7.40
2019-01-15T08:48:02.939Z,7.50
2019-01-15T08:50:32.245Z,7.50
2019-01-15T08:53:00.817Z,7.50
2019-01-15T08:55:29.089Z,7.50
2019-01-15T08:57:58.359Z,7.50
2019-01-15T09:00:27.076Z,7.50
2019-01-15T09:02:55.765Z,7.60
2019-01-15T09:05:24.464Z,7.60
2019-01-15T09:07:52.720Z,7.60
2019-01-15T09:10:21.435Z,7.70
2019-01-15T09:12:50.324Z,7.70
2019-01-15T09:15:18.786Z,7.70
2019-01-15T09:17:47.579Z,7.80
2019-01-15T09:20:17.871Z,7.80
2019-01-15T09:22:46.468Z,7.90
2019-01-15T09:25:15.250Z,7.90
2019-01-15T09:27:44.068Z,8.00
2019-01-15T09:30:14.663Z,8.00
2019-01-15T09:32:43.281Z,8.00
2019-01-15T09:35:11.769Z,8.00
2019-01-15T09:37:41.502Z,8.10
2019-01-15T09:40:12.503Z,8.10
2019-01-15T09:42:41.065Z,8.20
2019-01-15T09:45:11.640Z,8.20
2019-01-15T09:47:44.037Z,8.20
2019-01-15T09:50:13.313Z,8.30
2019-01-15T09:52:41.972Z,8.30
2019-01-15T09:55:10.747Z,8.40
2019-01-15T09:57:39.262Z,8.40
2019-01-15T10:00:07.842Z,8.40
2019-01-15T10:02:36.500Z,8.40
2019-01-15T10:05:05.222Z,8.50
2019-01-15T10:07:33.673Z,8.60
2019-01-15T10:10:02.099Z,8.60
2019-01-15T10:12:30.859Z,8.60
2019-01-15T10:14:59.515Z,8.70
2019-01-15T10:17:28.215Z,8.70
2019-01-15T10:19:56.916Z,8.70
2019-01-15T10:22:25.670Z,8.80
2019-01-15T10:24:54.684Z,8.90
2019-01-15T10:27:23.595Z,8.90
2019-01-15T10:29:59.109Z,8.90
2019-01-15T10:32:56.403Z,9.00
2019-01-15T10:35:57.314Z,9.10
2019-01-15T10:38:27.672Z,9.10
2019-01-15T10:40:57.190Z,9.20
2019-01-15T10:43:28.609Z,9.20
2019-01-15T10:45:57.536Z,9.20
2019-01-15T10:48:26.368Z,9.20
2019-01-15T10:50:55.051Z,9.30
2019-01-15T10:53:24.663Z,9.30
2019-01-15T10:55:53.236Z,9.30
2019-01-15T10:58:22.250Z,9.40
2019-01-15T11:00:51.289Z,9.40
2019-01-15T11:03:21.147Z,9.50
2019-01-15T11:05:49.854Z,9.50
2019-01-15T11:08:18.893Z,9.50
2019-01-15T11:10:47.200Z,9.50
2019-01-15T11:13:15.740Z,9.50
2019-01-15T11:15:44.561Z,9.50
2019-01-15T11:18:13.246Z,9.50
2019-01-15T11:20:41.961Z,9.60
2019-01-15T11:23:10.211Z,9.60
2019-01-15T11:25:38.689Z,9.60
2019-01-15T11:28:07.393Z,9.60
2019-01-15T11:30:35.745Z,9.60
2019-01-15T11:33:04.321Z,9.60
2019-01-15T11:35:33.047Z,9.60
2019-01-15T11:38:01.692Z,9.70
2019-01-15T11:40:30.375Z,9.70
2019-01-15T11:42:59.617Z,9.70
2019-01-15T11:45:28.365Z,9.70
2019-01-15T11:47:57.049Z,9.70
2019-01-15T11:50:25.755Z,9.70
2019-01-15T11:52:54.276Z,9.70
2019-01-15T11:55:26.636Z,9.70
2019-01-15T11:57:55.276Z,9.70
2019-01-15T12:00:48.180Z,9.70
2019-01-15T12:03:49.177Z,9.80
2019-01-15T12:06:46.163Z,9.80
2019-01-15T12:09:37.151Z,9.80
2019-01-15T12:12:44.201Z,9.90
2019-01-15T12:15:44.709Z,9.90
2019-01-15T12:18:47.622Z,9.80
2019-01-15T12:21:44.821Z,9.80
2019-01-15T12:24:35.321Z,9.80
2019-01-15T12:27:26.028Z,9.80
2019-01-15T12:30:11.501Z,9.90
2019-01-15T12:33:05.770Z,10.00
2019-01-15T12:35:56.988Z,10.00
2019-01-15T12:38:51.748Z,10.10
2019-01-15T12:41:42.775Z,10.10
2019-01-15T12:44:42.734Z,10.20
2019-01-15T12:47:27.193Z,10.20
2019-01-15T12:50:32.692Z,10.20
2019-01-15T12:53:21.397Z,10.20
2019-01-15T12:56:16.118Z,10.20
2019-01-15T12:59:22.319Z,10.20
2019-01-15T13:02:28.374Z,10.10
2019-01-15T13:05:06.427Z,10.20
2019-01-15T13:08:09.432Z,10.10
2019-01-15T13:10:56.214Z,10.20
2019-01-15T13:14:03.031Z,10.10
2019-01-15T13:16:51.726Z,10.10
2019-01-15T13:19:45.471Z,10.10
2019-01-15T13:22:45.625Z,10.10
2019-01-15T13:25:41.052Z,10.10
2019-01-15T13:28:30.832Z,10.10
2019-01-15T13:31:19.681Z,10.10
2019-01-15T13:34:02.431Z,10.00
2019-01-15T13:36:59.337Z,10.00
2019-01-15T13:39:47.310Z,9.90
2019-01-15T13:42:38.272Z,9.90
2019-01-15T13:45:33.389Z,9.90
2019-01-15T13:48:20.209Z,9.90
2019-01-15T13:51:08.360Z,9.90
2019-01-15T13:54:05.159Z,9.90
2019-01-15T13:56:53.777Z,9.80
2019-01-15T13:59:44.564Z,9.80
2019-01-15T14:02:32.497Z,9.80
2019-01-15T14:05:19.908Z,9.80
2019-01-15T14:08:23.081Z,9.80
2019-01-15T14:11:09.588Z,9.70
2019-01-15T14:14:06.515Z,9.70
2019-01-15T14:16:57.398Z,9.70
2019-01-15T14:19:36.202Z,9.60
2019-01-15T14:22:42.210Z,9.60
2019-01-15T14:25:33.010Z,9.60
2019-01-15T14:28:23.675Z,9.60
2019-01-15T14:31:14.746Z,9.60
2019-01-15T14:34:14.593Z,9.60
2019-01-15T14:37:11.926Z,9.60
2019-01-15T14:40:11.722Z,9.50
2019-01-15T14:43:14.705Z,9.50
2019-01-15T14:46:05.503Z,9.50
2019-01-15T14:48:52.827Z,9.50
2019-01-15T14:51:35.370Z,9.60
2019-01-15T14:54:29.721Z,9.50
2019-01-15T14:57:17.774Z,9.50
2019-01-15T15:00:04.479Z,9.50
2019-01-15T15:02:51.481Z,9.50
2019-01-15T15:05:28.412Z,9.50
2019-01-15T15:08:24.722Z,9.50
2019-01-15T15:11:24.656Z,9.50
2019-01-15T15:14:11.170Z,9.40
2019-01-15T15:17:11.151Z,9.40
2019-01-15T15:20:17.213Z,9.40
2019-01-15T15:23:11.743Z,9.30
2019-01-15T15:25:58.206Z,9.30
2019-01-15T15:28:46.413Z,9.30
2019-01-15T15:31:40.822Z,9.30
2019-01-15T15:34:29.158Z,9.20
2019-01-15T15:37:15.875Z,9.10
2019-01-15T15:40:02.574Z,9.10
2019-01-15T15:42:50.990Z,9.10
2019-01-15T15:45:32.174Z,9.10
2019-01-15T15:48:48.525Z,9.10
2019-01-15T15:51:35.382Z,9.00
2019-01-15T15:54:21.457Z,9.00
2019-01-15T15:57:13.659Z,9.00
2019-01-15T16:00:18.801Z,9.00
2019-01-15T16:03:12.467Z,8.90
2019-01-15T16:06:00.094Z,8.90
2019-01-15T16:08:57.303Z,8.90
2019-01-15T16:11:44.165Z,8.80
2019-01-15T16:14:40.460Z,8.80
2019-01-15T16:17:46.301Z,8.80
2019-01-15T16:20:34.408Z,8.70
2019-01-15T16:23:19.708Z,8.60
2019-01-15T16:26:16.894Z,8.60
2019-01-15T16:29:07.745Z,8.60
2019-01-15T16:31:55.588Z,8.50
2019-01-15T16:34:43.619Z,8.50
2019-01-15T16:37:34.311Z,8.50
2019-01-15T16:40:21.623Z,8.50
2019-01-15T16:43:21.858Z,8.50
2019-01-15T16:46:28.021Z,8.50
2019-01-15T16:49:19.710Z,8.50
2019-01-15T16:52:16.498Z,8.40
2019-01-15T16:55:14.767Z,8.40
2019-01-15T16:58:12.130Z,8.30
2019-01-15T17:01:04.362Z,8.30
2019-01-15T17:04:01.224Z,8.30
2019-01-15T17:06:45.710Z,8.30
2019-01-15T17:09:42.775Z,8.20
2019-01-15T17:12:40.284Z,8.20
2019-01-15T17:15:37.169Z,8.20
2019-01-15T17:18:13.121Z,8.20
2019-01-15T17:21:01.335Z,8.20
2019-01-15T17:23:38.974Z,8.20
2019-01-15T17:26:38.758Z,8.10
2019-01-15T17:29:19.452Z,8.10
2019-01-15T17:31:59.683Z,8.10
2019-01-15T17:34:37.631Z,8.10
2019-01-15T17:37:40.759Z,8.10
2019-01-15T17:40:35.126Z,8.10
2019-01-15T17:43:25.798Z,8.00
2019-01-15T17:46:25.789Z,8.00
2019-01-15T17:49:16.406Z,8.00
2019-01-15T17:52:02.973Z,8.00
2019-01-15T17:54:44.365Z,8.00
2019-01-15T17:57:47.282Z,8.00
2019-01-15T18:00:41.418Z,7.90
2019-01-15T18:03:33.221Z,8.00
2019-01-15T18:06:21.108Z,7.90
2019-01-15T18:09:21.201Z,7.90
2019-01-15T18:12:18.014Z,7.90
2019-01-15T18:15:08.272Z,7.90
2019-01-15T18:17:56.373Z,7.90
2019-01-15T18:20:43.034Z,7.90
2019-01-15T18:23:37.006Z,7.90
2019-01-15T18:26:36.626Z,7.90
2019-01-15T18:29:33.954Z,7.90
2019-01-15T18:32:22.507Z,7.90
2019-01-15T18:35:19.471Z,7.90
2019-01-15T18:38:13.247Z,7.80
2019-01-15T18:40:59.804Z,7.80
2019-01-15T18:43:44.826Z,7.80
2019-01-15T18:46:48.338Z,7.80
2019-01-15T18:49:36.638Z,7.80
2019-01-15T18:52:23.462Z,7.80
2019-01-15T18:55:11.705Z,7.80
2019-01-15T18:57:58.716Z,7.80
2019-01-15T19:01:05.133Z,7.80
2019-01-15T19:03:51.525Z,7.80
2019-01-15T19:06:39.430Z,7.80
2019-01-15T19:09:28.781Z,7.80
2019-01-15T19:12:15.854Z,7.70
2019-01-15T19:15:17.544Z,7.70
2019-01-15T19:18:04.222Z,7.70
2019-01-15T19:20:51.168Z,7.70
2019-01-15T19:23:38.089Z,7.70
2019-01-15T19:26:35.245Z,7.70
2019-01-15T19:29:26.446Z,7.70
2019-01-15T19:32:23.321Z,7.70
2019-01-15T19:35:10.410Z,7.60
2019-01-15T19:38:19.131Z,7.70
2019-01-15T19:41:16.266Z,7.70
2019-01-15T19:44:02.490Z,7.60
2019-01-15T19:47:02.663Z,7.60
2019-01-15T19:49:49.367Z,7.60
2019-01-15T19:52:30.054Z,7.60
2019-01-15T19:55:16.479Z,7.60
2019-01-15T19:57:58.378Z,7.60
2019-01-15T20:00:50.430Z,7.60
2019-01-15T20:03:37.534Z,7.60
2019-01-15T20:06:43.582Z,7.50
2019-01-15T20:09:30.619Z,7.50
2019-01-15T20:12:14.895Z,7.50
2019-01-15T20:15:05.798Z,7.50
2019-01-15T20:17:56.505Z,7.50
2019-01-15T20:20:51.355Z,7.50
2019-01-15T20:23:53.339Z,7.50
2019-01-15T20:26:49.677Z,7.50
2019-01-15T20:29:36.614Z,7.50
2019-01-15T20:32:18.983Z,7.50
2019-01-15T20:35:22.405Z,7.50
2019-01-15T20:38:10.475Z,7.50
2019-01-15T20:40:55.251Z,7.50
2019-01-15T20:43:40.016Z,7.50
2019-01-15T20:46:21.466Z,7.50
2019-01-15T20:49:09.301Z,7.50
2019-01-15T20:51:56.281Z,7.50
2019-01-15T20:54:40.982Z,7.50
2019-01-15T20:57:31.798Z,7.50
2019-01-15T21:00:27.823Z,7.40
2019-01-15T21:03:15.756Z,7.50
2019-01-15T21:06:19.056Z,7.40
2019-01-15T21:09:13.057Z,7.40
2019-01-15T21:12:01.918Z,7.40
2019-01-15T21:14:48.389Z,7.40
2019-01-15T21:17:48.265Z,7.40
2019-01-15T21:20:37.757Z,7.40
2019-01-15T21:23:34.530Z,7.40
2019-01-15T21:26:22.791Z,7.40
2019-01-15T21:29:17.531Z,7.40
2019-01-15T21:32:08.273Z,7.40
2019-01-15T21:35:01.857Z,7.40
2019-01-15T21:38:04.442Z,7.30
2019-01-15T21:41:04.523Z,7.30
2019-01-15T21:44:24.429Z,7.30
2019-01-15T21:47:12.545Z,7.30
2019-01-15T21:49:59.139Z,7.30
2019-01-15T21:52:53.403Z,7.20
2019-01-15T21:55:33.394Z,7.20
2019-01-15T21:58:24.332Z,7.20
2019-01-15T22:01:11.126Z,7.20
2019-01-15T22:04:03.926Z,7.20
2019-01-15T22:06:56.215Z,7.20
2019-01-15T22:09:51.491Z,7.20
2019-01-15T22:12:53.394Z,7.20
2019-01-15T22:15:31.102Z,7.20
2019-01-15T22:18:21.923Z,7.20
2019-01-15T22:21:12.538Z,7.20
2019-01-15T22:24:18.547Z,7.10
2019-01-15T22:27:05.112Z,7.10
2019-01-15T22:29:51.488Z,7.10
2019-01-15T22:32:39.479Z,7.00
2019-01-15T22:35:30.239Z,7.00
2019-01-15T22:38:13.239Z,6.90
2019-01-15T22:40:53.153Z,6.90
2019-01-15T22:43:44.089Z,6.80
2019-01-15T22:46:47.105Z,6.80
2019-01-15T22:49:43.910Z,6.70
2019-01-15T22:52:24.647Z,6.70
2019-01-15T22:55:14.891Z,6.60
2019-01-15T22:57:51.718Z,6.50
2019-01-15T23:00:44.577Z,6.50
2019-01-15T23:03:30.851Z,6.40
2019-01-15T23:06:18.811Z,6.30
2019-01-15T23:09:06.125Z,6.20
2019-01-15T23:11:54.270Z,6.20
2019-01-15T23:14:40.169Z,6.10
2019-01-15T23:17:40.357Z,6.10
2019-01-15T23:20:25.610Z,6.00
2019-01-15T23:23:08.615Z,5.90
2019-01-15T23:25:49.353Z,5.80
2019-01-15T23:28:36.526Z,5.80
2019-01-15T23:31:28.439Z,5.70
2019-01-15T23:34:12.859Z,5.70
2019-01-15T23:37:06.592Z,5.60
2019-01-15T23:39:54.368Z,5.50
2019-01-15T23:42:45.350Z,5.50
2019-01-15T23:45:45.338Z,5.40
2019-01-15T23:48:48.536Z,5.30
2019-01-15T23:51:36.436Z,5.30
2019-01-15T23:54:33.685Z,5.20
2019-01-15T23:57:22.009Z,5.10
